WetterOnline ( https://www.wetteronline.ch )

Wetter aktuell Erzgebirge/Ost (in 800m)

Aktuelles Wetter: Zinnwald (882m)

6-stündlich | Neueste Meldungen
Ortszeit Temperatur Wetter
Di, 23.04. 14:00 9.9° C bedeckt
Di, 23.04. 8:00 6.4° C bewölkt
Di, 23.04. 2:00 6.7° C wolkenlos
Mo, 22.04. 20:00 7.6° C wolkenlos
Mo, 22.04. 14:00 12.2° C wolkenlos
Mo, 22.04. 8:00 9.8° C wolkenlos
Mo, 22.04. 2:00 8.6° C wolkenlos
So, 21.04. 20:00 11.6° C wolkenlos
Ortszeit Temperatur Wetter
Di, 23.04. 19:30 6.7° C bedeckt
Di, 23.04. 19:20 6.7° C bedeckt
Di, 23.04. 19:10 6.8° C bedeckt
Di, 23.04. 19:00 7.0° C bedeckt
Di, 23.04. 18:50 7.0° C bedeckt
Di, 23.04. 18:40 7.1° C bedeckt
Di, 23.04. 18:30 7.4° C bedeckt
Di, 23.04. 18:00 7.7° C bedeckt
Ortszeit Relative Feuchte Sichtweite
Di, 23.04. 14:00 68% 14 km
Di, 23.04. 8:00 77% 25 km
Di, 23.04. 2:00 69% 40 km
Mo, 22.04. 20:00 53% 45 km
Mo, 22.04. 14:00 31% 27 km
Mo, 22.04. 8:00 52% 24 km
Mo, 22.04. 2:00 58% 65 km
So, 21.04. 20:00 46% 70 km
Ortszeit Relative Feuchte Sichtweite
Di, 23.04. 19:30 86% 15 km
Di, 23.04. 19:20 86% -
Di, 23.04. 19:10 85% -
Di, 23.04. 19:00 83% 15 km
Di, 23.04. 18:50 83% -
Di, 23.04. 18:40 83% -
Di, 23.04. 18:30 80% 14 km
Di, 23.04. 18:00 77% 11 km
Ortszeit Niederschlagsmenge Niederschlagsart
Di, 23.04. 14:00 0.0 l/m2 in 6 Std. -
Di, 23.04. 8:00 0.0 l/m2 in 12 Std. -
Di, 23.04. 2:00 0.0 l/m2 in 6 Std. -
Mo, 22.04. 20:00 0.0 l/m2 in 12 Std. -
Mo, 22.04. 14:00 0.0 l/m2 in 6 Std. -
Mo, 22.04. 8:00 0.0 l/m2 in 12 Std. -
Mo, 22.04. 2:00 0.0 l/m2 in 6 Std. -
So, 21.04. 20:00 0.0 l/m2 in 12 Std. -
Ortszeit Niederschlagsmenge Niederschlagsart
Di, 23.04. 19:30 0.0 l/m2 in 1 Std. -
Di, 23.04. 19:20 keine Meldung -
Di, 23.04. 19:10 keine Meldung -
Di, 23.04. 19:00 0.1 l/m2 in 1 Std. -
Di, 23.04. 18:50 keine Meldung -
Di, 23.04. 18:40 keine Meldung -
Di, 23.04. 18:30 0.0 l/m2 in 1 Std. -
Di, 23.04. 18:00 0.0 l/m2 in 1 Std. -
Ortszeit Stärke Spitze Richtung
km/h Bft. km/h Grad Sektor
Di, 23.04. 14:00 37 5 63 140° SO
Di, 23.04. 8:00 28 4 57 140° SO
Di, 23.04. 2:00 30 5 56 120° SO
Mo, 22.04. 20:00 22 4 47 110° O
Mo, 22.04. 14:00 28 4 46 50° NO
Mo, 22.04. 8:00 13 3 20 80° O
Mo, 22.04. 2:00 11 2 18 70° O
So, 21.04. 20:00 13 3 28 30° NO
Ortszeit Stärke Spitze Richtung
km/h Bft. km/h Grad Sektor
Di, 23.04. 19:30 47 6 72 150° SO
Di, 23.04. 19:20 47 6 - 150° SO
Di, 23.04. 19:10 47 6 - 150° SO
Di, 23.04. 19:00 44 6 81 150° SO
Di, 23.04. 18:50 44 6 - 150° SO
Di, 23.04. 18:40 52 7 - 150° SO
Di, 23.04. 18:30 52 7 81 150° SO
Di, 23.04. 18:00 47 6 76 150° SO
Ortszeit Untergrenze Bedeckung Gattung
total tief tief mittel hoch
Di, 23.04. 14:00 780 m 8/8 8/8 - - -
Di, 23.04. 8:00 480 m 7/8 7/8 - - -
Di, 23.04. 2:00 - 0/8 0/8 - - -
Mo, 22.04. 20:00 - 0/8 0/8 - - -
Mo, 22.04. 14:00 - 0/8 0/8 - - -
Mo, 22.04. 8:00 - 0/8 0/8 - - -
Mo, 22.04. 2:00 - 0/8 0/8 - - -
So, 21.04. 20:00 - 0/8 0/8 - - -
Ortszeit Bedeckungsgrad in Achtel und Wolkenuntergrenze
Di, 23.04. 19:30 8(240m)
Di, 23.04. 19:20 8(240m)
Di, 23.04. 19:10 8(270m)
Di, 23.04. 19:00 8(300m)
Di, 23.04. 18:50 8(300m)
Di, 23.04. 18:40 8(330m)
Di, 23.04. 18:30 8(390m)
Di, 23.04. 18:00 8(480m)
Ortszeit Stationsdruck (hPa) Tendenz (hPa in 3 Std.)
Di, 23.04. 14:00 906 - 0,7
Di, 23.04. 8:00 908 - 0,9
Di, 23.04. 2:00 910 - 1,7
Mo, 22.04. 20:00 912 0,0
Mo, 22.04. 14:00 914 - 1,0
Mo, 22.04. 8:00 915 - 0,7
Mo, 22.04. 2:00 917 - 0,8
So, 21.04. 20:00 919 - 0,9
Ortszeit Stationsdruck (hPa) Tendenz (hPa in 3 Std.)
Di, 23.04. 19:30 906 - 0,4
Di, 23.04. 19:20 906 keine Meldung
Di, 23.04. 19:10 906 keine Meldung
Di, 23.04. 19:00 906 - 0,2
Di, 23.04. 18:50 906 keine Meldung
Di, 23.04. 18:40 906 keine Meldung
Di, 23.04. 18:30 906 + 0,4
Di, 23.04. 18:00 906 + 0,2
Ortszeit Schneehöhe (cm)
Di, 23.04. 14:00 0
Di, 23.04. 8:00 0
Di, 23.04. 2:00 0
Mo, 22.04. 20:00 0
Mo, 22.04. 14:00 0
Mo, 22.04. 8:00 0
Mo, 22.04. 2:00 0
So, 21.04. 20:00 0
Ortszeit Schneehöhe (cm)
Di, 23.04. 19:30 0
Di, 23.04. 19:20 0
Di, 23.04. 19:10 0
Di, 23.04. 19:00 0
Di, 23.04. 18:50 0
Di, 23.04. 18:40 0
Di, 23.04. 18:30 0
Di, 23.04. 18:00 0
Link zu dieser Seite / Seite empfehlen

Das Wetter in ...